createdAt,value
2022-08-22T00:01:06.132Z,20.44
2022-08-22T00:03:02.739Z,22.43
2022-08-22T00:03:56.385Z,20.49
2022-08-22T00:06:30.339Z,20.43
2022-08-22T00:09:12.677Z,20.43
2022-08-22T00:12:04.170Z,20.41
2022-08-22T00:14:34.995Z,20.36
2022-08-22T00:17:22.305Z,20.16
2022-08-22T00:19:54.190Z,20.00
2022-08-22T00:22:42.647Z,19.99
2022-08-22T00:25:24.860Z,19.90
2022-08-22T00:28:02.073Z,19.76
2022-08-22T00:30:30.242Z,19.77
2022-08-22T00:33:02.397Z,19.80
2022-08-22T00:35:36.281Z,19.74
2022-08-22T00:38:19.714Z,19.77
2022-08-22T00:41:12.986Z,19.77
2022-08-22T00:43:51.993Z,19.77
2022-08-22T00:46:41.998Z,19.73
2022-08-22T00:49:50.095Z,19.86
2022-08-22T00:52:39.919Z,19.86
2022-08-22T00:55:12.367Z,19.81
2022-08-22T00:58:08.584Z,19.84
2022-08-22T01:00:41.847Z,19.77
2022-08-22T01:03:24.208Z,19.71
2022-08-22T01:06:10.545Z,19.61
2022-08-22T01:09:09.435Z,19.40
2022-08-22T01:11:36.091Z,19.46
2022-08-22T01:14:13.644Z,19.49
2022-08-22T01:17:29.487Z,19.46
2022-08-22T01:20:15.416Z,19.46
2022-08-22T01:23:13.206Z,19.29
2022-08-22T01:26:19.659Z,19.23
2022-08-22T01:29:28.209Z,19.08
2022-08-22T01:32:27.257Z,19.21
2022-08-22T01:35:01.956Z,19.14
2022-08-22T01:37:47.885Z,19.13
2022-08-22T01:40:33.223Z,19.05
2022-08-22T01:43:43.842Z,19.13
2022-08-22T01:46:50.326Z,19.01
2022-08-22T01:49:29.581Z,19.10
2022-08-22T01:52:15.461Z,19.08
2022-08-22T01:54:58.898Z,19.03
2022-08-22T01:57:26.568Z,18.90
2022-08-22T01:59:58.092Z,18.88
2022-08-22T02:02:47.840Z,18.86
2022-08-22T02:05:48.285Z,18.89
2022-08-22T02:08:40.355Z,18.96
2022-08-22T02:11:30.212Z,18.88
2022-08-22T02:14:25.021Z,18.78
2022-08-22T02:17:22.101Z,18.87
2022-08-22T02:20:22.892Z,18.94
2022-08-22T02:23:07.143Z,18.56
2022-08-22T02:25:57.344Z,18.23
2022-08-22T02:28:57.086Z,18.43
2022-08-22T02:31:36.969Z,18.63
2022-08-22T02:34:27.857Z,18.51
2022-08-22T02:37:17.962Z,18.17
2022-08-22T02:39:53.554Z,18.15
2022-08-22T02:43:02.717Z,18.06
2022-08-22T02:46:03.847Z,18.12
2022-08-22T02:48:38.761Z,18.42
2022-08-22T02:51:15.144Z,18.37
2022-08-22T02:53:48.224Z,18.16
2022-08-22T02:56:19.468Z,18.07
2022-08-22T02:59:00.156Z,18.15
2022-08-22T03:01:29.797Z,18.14
2022-08-22T03:04:16.458Z,18.02
2022-08-22T03:06:59.243Z,18.19
2022-08-22T03:09:31.771Z,18.21
2022-08-22T03:12:11.311Z,18.21
2022-08-22T03:14:47.801Z,18.30
2022-08-22T03:17:23.841Z,18.39
2022-08-22T03:20:04.204Z,18.31
2022-08-22T03:22:45.671Z,18.20
2022-08-22T03:25:20.971Z,18.17
2022-08-22T03:28:00.546Z,18.19
2022-08-22T03:30:44.335Z,18.19
2022-08-22T03:33:22.731Z,18.12
2022-08-22T03:35:49.847Z,17.98
2022-08-22T03:38:29.977Z,18.03
2022-08-22T03:41:35.400Z,18.09
2022-08-22T03:44:09.177Z,18.08
2022-08-22T03:46:51.024Z,18.14
2022-08-22T03:49:32.521Z,18.14
2022-08-22T03:52:21.646Z,18.14
2022-08-22T03:55:06.300Z,18.17
2022-08-22T03:58:27.454Z,18.17
2022-08-22T04:01:16.358Z,18.15
2022-08-22T04:04:14.497Z,18.04
2022-08-22T04:07:31.594Z,17.80
2022-08-22T04:10:27.143Z,17.74
2022-08-22T04:13:02.705Z,17.65
2022-08-22T04:15:44.333Z,17.54
2022-08-22T04:18:34.855Z,17.68
2022-08-22T04:21:16.476Z,17.69
2022-08-22T04:23:57.597Z,17.79
2022-08-22T04:26:44.987Z,17.80
2022-08-22T04:29:26.783Z,17.47
2022-08-22T04:32:02.675Z,17.68
2022-08-22T04:34:37.650Z,17.71
2022-08-22T04:37:12.692Z,17.54
2022-08-22T04:39:51.466Z,17.35
2022-08-22T04:42:33.515Z,17.37
2022-08-22T04:45:17.157Z,17.45
2022-08-22T04:47:56.512Z,17.30
2022-08-22T04:50:29.646Z,17.17
2022-08-22T04:53:23.351Z,17.27
2022-08-22T04:56:20.901Z,17.51
2022-08-22T04:58:59.590Z,17.20
2022-08-22T05:01:41.641Z,17.17
2022-08-22T05:04:18.492Z,17.16
2022-08-22T05:06:50.488Z,17.25
2022-08-22T05:09:22.257Z,17.40
2022-08-22T05:11:52.789Z,17.43
2022-08-22T05:14:28.005Z,17.50
2022-08-22T05:16:57.566Z,17.62
2022-08-22T05:19:34.646Z,17.65
2022-08-22T05:22:03.139Z,17.63
2022-08-22T05:24:38.560Z,17.64
2022-08-22T05:27:11.713Z,17.50
2022-08-22T05:29:42.719Z,17.59
2022-08-22T05:32:20.976Z,17.72
2022-08-22T05:34:51.389Z,17.82
2022-08-22T05:37:24.341Z,17.88
2022-08-22T05:40:00.651Z,17.87
2022-08-22T05:42:31.957Z,17.86
2022-08-22T05:45:01.812Z,17.93
2022-08-22T05:47:42.158Z,18.02
2022-08-22T05:50:12.729Z,18.05
2022-08-22T05:52:48.388Z,17.97
2022-08-22T05:55:27.828Z,18.19
2022-08-22T05:58:15.902Z,18.36
2022-08-22T06:00:46.081Z,18.23
2022-08-22T06:03:23.037Z,18.03
2022-08-22T06:05:53.709Z,18.15
2022-08-22T06:08:23.402Z,18.39
2022-08-22T06:10:55.465Z,18.53
2022-08-22T06:13:41.567Z,18.59
2022-08-22T06:16:30.614Z,18.56
2022-08-22T06:18:57.995Z,18.65
2022-08-22T06:21:37.651Z,18.67
2022-08-22T06:24:12.966Z,18.76
2022-08-22T06:26:49.009Z,18.71
2022-08-22T06:29:37.614Z,18.83
2022-08-22T06:32:14.099Z,18.83
2022-08-22T06:34:43.988Z,18.94
2022-08-22T06:37:18.039Z,18.96
2022-08-22T06:39:49.163Z,19.03
2022-08-22T06:42:29.441Z,19.07
2022-08-22T06:45:05.716Z,19.13
2022-08-22T06:47:57.109Z,19.12
2022-08-22T06:50:33.872Z,19.01
2022-08-22T06:53:08.189Z,18.97
2022-08-22T06:55:39.149Z,19.09
2022-08-22T06:58:11.728Z,19.14
2022-08-22T07:00:42.232Z,19.37
2022-08-22T07:03:20.290Z,19.34
2022-08-22T07:05:47.048Z,19.35
2022-08-22T07:08:18.866Z,19.26
2022-08-22T07:11:08.153Z,19.52
2022-08-22T07:13:39.354Z,19.70
2022-08-22T07:16:08.616Z,19.71
2022-08-22T07:18:47.538Z,19.94
2022-08-22T07:21:27.846Z,20.03
2022-08-22T07:23:56.736Z,20.00
2022-08-22T07:26:54.340Z,20.13
2022-08-22T07:29:34.643Z,20.38
2022-08-22T07:32:13.407Z,20.48
2022-08-22T07:35:01.873Z,20.58
2022-08-22T07:38:13.825Z,20.55
2022-08-22T07:40:46.126Z,20.64
2022-08-22T07:43:38.002Z,20.70
2022-08-22T07:46:19.501Z,20.74
2022-08-22T07:49:15.559Z,20.81
2022-08-22T07:51:54.243Z,20.83
2022-08-22T07:54:33.476Z,20.74
2022-08-22T07:57:07.865Z,20.72
2022-08-22T07:59:38.711Z,20.81
2022-08-22T08:02:10.966Z,20.85
2022-08-22T08:04:40.688Z,20.95
2022-08-22T08:07:10.640Z,21.01
2022-08-22T08:09:42.952Z,21.01
2022-08-22T08:12:12.028Z,21.00
2022-08-22T08:14:43.483Z,20.90
2022-08-22T08:17:28.780Z,20.94
2022-08-22T08:20:03.049Z,21.02
2022-08-22T08:22:30.668Z,21.14
2022-08-22T08:24:59.753Z,21.27
2022-08-22T08:27:50.387Z,21.28
2022-08-22T08:30:43.148Z,21.30
2022-08-22T08:33:25.396Z,21.45
2022-08-22T08:36:07.043Z,21.59
2022-08-22T08:38:48.440Z,21.69
2022-08-22T08:41:30.107Z,21.82
2022-08-22T08:44:17.021Z,21.93
2022-08-22T08:46:55.606Z,21.88
2022-08-22T08:50:02.884Z,22.08
2022-08-22T08:53:00.948Z,22.18
2022-08-22T08:55:45.908Z,22.23
2022-08-22T08:58:43.189Z,22.33
2022-08-22T09:01:14.010Z,22.24
2022-08-22T09:03:51.371Z,22.33
2022-08-22T09:06:37.623Z,22.36
2022-08-22T09:09:25.667Z,22.37
2022-08-22T09:12:07.668Z,22.37
2022-08-22T09:14:38.075Z,22.33
2022-08-22T09:17:40.496Z,22.36
2022-08-22T09:20:17.881Z,22.58
2022-08-22T09:23:05.262Z,22.78
2022-08-22T09:25:40.539Z,22.76
2022-08-22T09:28:45.395Z,22.88
2022-08-22T09:31:44.835Z,22.85
2022-08-22T09:34:24.101Z,23.03
2022-08-22T09:37:20.967Z,23.10
2022-08-22T09:39:57.406Z,23.02
2022-08-22T09:42:50.429Z,23.05
2022-08-22T09:45:47.909Z,23.16
2022-08-22T09:48:47.209Z,23.31
2022-08-22T09:51:34.466Z,23.48
2022-08-22T09:54:10.075Z,23.54
2022-08-22T09:56:54.645Z,23.59
2022-08-22T09:59:53.793Z,23.81
2022-08-22T10:02:34.467Z,23.93
2022-08-22T10:05:40.436Z,23.84
2022-08-22T10:08:13.738Z,23.94
2022-08-22T10:10:43.189Z,24.03
2022-08-22T10:13:37.677Z,24.05
2022-08-22T10:16:24.469Z,24.09
2022-08-22T10:19:18.020Z,24.11
2022-08-22T10:22:03.692Z,24.06
2022-08-22T10:24:51.705Z,23.87
2022-08-22T10:27:32.599Z,23.99
2022-08-22T10:30:10.466Z,24.14
2022-08-22T10:33:00.684Z,24.24
2022-08-22T10:35:33.630Z,24.32
2022-08-22T10:38:12.305Z,24.32
2022-08-22T10:40:56.854Z,24.41
2022-08-22T10:44:00.804Z,24.54
2022-08-22T10:46:42.255Z,24.50
2022-08-22T10:49:22.841Z,24.50
2022-08-22T10:52:19.767Z,24.72
2022-08-22T10:55:13.834Z,24.75
2022-08-22T10:58:17.361Z,24.92
2022-08-22T11:00:49.858Z,24.86
2022-08-22T11:03:26.071Z,24.67
2022-08-22T11:05:59.362Z,24.72
2022-08-22T11:08:54.312Z,24.97
2022-08-22T11:11:39.335Z,25.07
2022-08-22T11:14:57.411Z,25.11
2022-08-22T11:17:53.938Z,24.89
2022-08-22T11:20:32.282Z,24.98
2022-08-22T11:23:45.411Z,24.96
2022-08-22T11:26:46.672Z,24.94
2022-08-22T11:29:39.654Z,25.06
2022-08-22T11:32:34.203Z,25.16
2022-08-22T11:35:19.263Z,25.08
2022-08-22T11:37:54.793Z,24.92
2022-08-22T11:40:51.086Z,25.00
2022-08-22T11:43:26.681Z,24.97
2022-08-22T11:45:58.093Z,25.13
2022-08-22T11:48:25.094Z,25.04
2022-08-22T11:50:54.792Z,25.04
2022-08-22T11:53:46.220Z,25.04
2022-08-22T11:56:23.548Z,25.12
2022-08-22T11:58:58.605Z,25.12
2022-08-22T12:01:37.291Z,25.21
2022-08-22T12:04:14.100Z,25.32
2022-08-22T12:06:46.029Z,25.35
2022-08-22T12:09:20.163Z,25.18
2022-08-22T12:12:08.790Z,25.19
2022-08-22T12:14:54.732Z,25.27
2022-08-22T12:17:55.065Z,25.24
2022-08-22T12:20:36.208Z,25.27
2022-08-22T12:23:20.945Z,25.33
2022-08-22T12:26:16.391Z,25.40
2022-08-22T12:29:27.455Z,25.33
2022-08-22T12:32:22.796Z,25.51
2022-08-22T12:35:13.964Z,25.54
2022-08-22T12:37:54.229Z,25.40
2022-08-22T12:40:28.187Z,25.36
2022-08-22T12:43:13.153Z,25.35
2022-08-22T12:46:03.187Z,25.39
2022-08-22T12:49:07.792Z,25.47
2022-08-22T12:51:50.610Z,25.58
2022-08-22T12:54:50.692Z,25.64
2022-08-22T12:57:33.956Z,25.67
2022-08-22T13:00:22.976Z,25.65
2022-08-22T13:02:55.514Z,25.64
2022-08-22T13:05:28.476Z,25.74
2022-08-22T13:08:04.137Z,25.86
2022-08-22T13:10:34.517Z,25.95
2022-08-22T13:13:03.809Z,25.98
2022-08-22T13:15:54.085Z,25.81
2022-08-22T13:18:31.255Z,25.74
2022-08-22T13:21:03.824Z,25.83
2022-08-22T13:23:53.226Z,25.91
2022-08-22T13:26:26.958Z,25.94
2022-08-22T13:29:24.458Z,25.88
2022-08-22T13:31:56.244Z,25.94
2022-08-22T13:34:29.147Z,26.04
2022-08-22T13:37:01.618Z,26.06
2022-08-22T13:39:38.687Z,26.05
2022-08-22T13:42:07.577Z,26.04
2022-08-22T13:44:49.283Z,26.08
2022-08-22T13:47:19.489Z,25.96
2022-08-22T13:50:08.554Z,26.03
2022-08-22T13:52:52.538Z,26.07
2022-08-22T13:55:34.059Z,26.09
2022-08-22T13:58:27.091Z,26.13
2022-08-22T14:01:16.149Z,26.03
2022-08-22T14:03:50.662Z,25.97
2022-08-22T14:06:35.505Z,25.96
2022-08-22T14:09:31.279Z,26.05
2022-08-22T14:12:11.806Z,26.20
2022-08-22T14:14:43.313Z,26.29
2022-08-22T14:17:22.827Z,26.32
2022-08-22T14:20:06.903Z,26.09
2022-08-22T14:22:40.572Z,26.12
2022-08-22T14:25:17.436Z,26.17
2022-08-22T14:27:58.965Z,26.12
2022-08-22T14:30:35.863Z,25.65
2022-08-22T14:33:16.562Z,25.70
2022-08-22T14:35:52.732Z,25.81
2022-08-22T14:38:35.795Z,25.84
2022-08-22T14:41:24.551Z,26.00
2022-08-22T14:43:59.904Z,25.98
2022-08-22T14:46:55.715Z,26.06
2022-08-22T14:49:33.439Z,25.90
2022-08-22T14:52:06.869Z,25.84
2022-08-22T14:54:36.464Z,26.03
2022-08-22T14:57:10.388Z,26.18
2022-08-22T14:59:52.468Z,26.15
2022-08-22T15:02:21.814Z,26.06
2022-08-22T15:04:53.510Z,26.14
2022-08-22T15:07:31.065Z,26.03
2022-08-22T15:10:06.115Z,26.06
2022-08-22T15:12:35.601Z,26.21
2022-08-22T15:15:26.700Z,26.24
2022-08-22T15:17:53.638Z,26.26
2022-08-22T15:20:38.257Z,26.28
2022-08-22T15:23:21.831Z,26.32
2022-08-22T15:26:01.605Z,26.43
2022-08-22T15:28:52.355Z,26.48
2022-08-22T15:31:20.379Z,26.42
2022-08-22T15:33:48.475Z,26.47
2022-08-22T15:36:21.685Z,26.40
2022-08-22T15:38:51.735Z,26.47
2022-08-22T15:41:31.422Z,26.54
2022-08-22T15:44:10.255Z,26.46
2022-08-22T15:46:59.420Z,26.31
2022-08-22T15:49:35.444Z,26.40
2022-08-22T15:52:02.112Z,26.34
2022-08-22T15:54:53.143Z,26.47
2022-08-22T15:57:38.846Z,26.28
2022-08-22T16:00:27.874Z,26.18
2022-08-22T16:03:13.131Z,26.06
2022-08-22T16:05:58.831Z,25.92
2022-08-22T16:08:33.306Z,25.87
2022-08-22T16:11:03.255Z,25.84
2022-08-22T16:13:29.967Z,25.82
2022-08-22T16:16:34.067Z,25.82
2022-08-22T16:19:03.995Z,25.71
2022-08-22T16:21:30.598Z,25.86
2022-08-22T16:23:57.101Z,25.77
2022-08-22T16:26:30.027Z,25.71
2022-08-22T16:29:03.336Z,25.75
2022-08-22T16:31:32.014Z,25.81
2022-08-22T16:34:20.952Z,25.98
2022-08-22T16:36:50.470Z,26.18
2022-08-22T16:39:23.323Z,26.27
2022-08-22T16:41:52.857Z,26.28
2022-08-22T16:44:28.503Z,26.18
2022-08-22T16:47:21.457Z,26.18
2022-08-22T16:49:51.151Z,26.39
2022-08-22T16:52:26.763Z,26.44
2022-08-22T16:55:24.653Z,26.23
2022-08-22T16:58:29.552Z,26.09
2022-08-22T17:01:25.556Z,26.12
2022-08-22T17:04:14.547Z,25.90
2022-08-22T17:06:50.218Z,25.96
2022-08-22T17:09:50.768Z,25.83
2022-08-22T17:12:55.324Z,25.80
2022-08-22T17:15:28.223Z,25.84
2022-08-22T17:18:25.785Z,25.87
2022-08-22T17:21:12.230Z,25.84
2022-08-22T17:24:31.622Z,25.68
2022-08-22T17:27:06.321Z,25.54
2022-08-22T17:30:06.975Z,25.63
2022-08-22T17:33:07.124Z,25.61
2022-08-22T17:35:44.205Z,25.57
2022-08-22T17:38:21.215Z,25.48
2022-08-22T17:41:06.394Z,25.39
2022-08-22T17:44:05.149Z,25.36
2022-08-22T17:46:46.941Z,25.37
2022-08-22T17:49:45.204Z,25.17
2022-08-22T17:52:15.844Z,25.17
2022-08-22T17:54:50.766Z,25.19
2022-08-22T17:57:38.378Z,25.04
2022-08-22T18:00:18.550Z,25.06
2022-08-22T18:02:54.849Z,25.06
2022-08-22T18:05:29.754Z,25.02
2022-08-22T18:09:13.404Z,24.94
2022-08-22T18:11:16.471Z,24.91
2022-08-22T18:13:58.139Z,24.86
2022-08-22T18:16:42.195Z,24.79
2022-08-22T18:19:23.869Z,24.50
2022-08-22T18:22:04.246Z,24.59
2022-08-22T18:24:51.729Z,24.67
2022-08-22T18:27:40.054Z,24.66
2022-08-22T18:30:21.817Z,24.59
2022-08-22T18:32:54.543Z,24.56
2022-08-22T18:35:40.241Z,24.41
2022-08-22T18:38:38.590Z,24.32
2022-08-22T18:41:24.004Z,24.36
2022-08-22T18:43:53.391Z,24.34
2022-08-22T18:46:38.189Z,24.30
2022-08-22T18:49:15.963Z,24.25
2022-08-22T18:51:43.300Z,24.19
2022-08-22T18:54:11.354Z,24.12
2022-08-22T18:56:53.899Z,24.06
2022-08-22T18:59:26.715Z,24.01
2022-08-22T19:02:15.413Z,24.04
2022-08-22T19:05:07.143Z,23.91
2022-08-22T19:08:23.101Z,23.81
2022-08-22T19:11:05.489Z,23.80
2022-08-22T19:13:41.512Z,23.82
2022-08-22T19:16:45.664Z,23.61
2022-08-22T19:19:21.224Z,23.49
2022-08-22T19:22:19.072Z,23.38
2022-08-22T19:25:01.015Z,23.21
2022-08-22T19:27:31.191Z,23.30
2022-08-22T19:30:01.750Z,23.39
2022-08-22T19:32:46.707Z,23.50
2022-08-22T19:35:26.404Z,23.52
2022-08-22T19:38:02.497Z,23.37
2022-08-22T19:40:44.473Z,23.38
2022-08-22T19:43:42.039Z,23.45
2022-08-22T19:46:12.669Z,23.29
2022-08-22T19:48:52.484Z,23.15
2022-08-22T19:51:19.057Z,23.21
2022-08-22T19:53:51.498Z,23.09
2022-08-22T19:56:22.637Z,23.07
2022-08-22T19:59:21.291Z,23.21
2022-08-22T20:02:18.448Z,23.29
2022-08-22T20:05:23.045Z,23.33
2022-08-22T20:08:13.469Z,23.31
2022-08-22T20:10:49.483Z,23.32
2022-08-22T20:13:29.996Z,23.19
2022-08-22T20:16:17.973Z,23.17
2022-08-22T20:19:07.641Z,22.98
2022-08-22T20:21:54.717Z,23.03
2022-08-22T20:24:51.139Z,23.11
2022-08-22T20:27:27.551Z,23.10
2022-08-22T20:30:04.522Z,23.17
2022-08-22T20:32:37.819Z,23.08
2022-08-22T20:35:05.877Z,23.18
2022-08-22T20:38:05.466Z,23.26
2022-08-22T20:40:56.928Z,23.06
2022-08-22T20:43:28.431Z,22.83
2022-08-22T20:46:03.340Z,22.92
2022-08-22T20:48:37.511Z,22.88
2022-08-22T20:51:06.748Z,23.07
2022-08-22T20:53:34.161Z,23.15
2022-08-22T20:56:00.820Z,23.16
2022-08-22T20:58:35.712Z,23.09
2022-08-22T21:01:06.658Z,22.98
2022-08-22T21:03:44.477Z,23.00
2022-08-22T21:06:18.883Z,23.07
2022-08-22T21:08:47.319Z,23.04
2022-08-22T21:11:40.984Z,23.00
2022-08-22T21:14:26.297Z,23.10
2022-08-22T21:16:53.419Z,23.11
2022-08-22T21:19:25.311Z,23.08
2022-08-22T21:21:52.250Z,22.98
2022-08-22T21:24:18.992Z,23.11
2022-08-22T21:26:48.613Z,23.16
2022-08-22T21:29:15.122Z,22.97
2022-08-22T21:31:49.533Z,22.89
2022-08-22T21:34:22.897Z,23.00
2022-08-22T21:36:52.070Z,23.00
2022-08-22T21:39:24.836Z,22.89
2022-08-22T21:42:00.486Z,22.91
2022-08-22T21:44:33.122Z,22.78
2022-08-22T21:47:30.815Z,22.48
2022-08-22T21:50:13.369Z,22.60
2022-08-22T21:52:44.640Z,22.54
2022-08-22T21:55:23.907Z,22.57
2022-08-22T21:58:04.425Z,22.51
2022-08-22T22:00:48.681Z,22.56
2022-08-22T22:03:19.369Z,22.52
2022-08-22T22:05:49.095Z,22.54
2022-08-22T22:08:16.847Z,22.67
2022-08-22T22:10:46.182Z,22.78
2022-08-22T22:13:13.752Z,22.74
2022-08-22T22:15:46.061Z,22.76
2022-08-22T22:18:14.749Z,22.72
2022-08-22T22:20:43.047Z,22.80
2022-08-22T22:23:10.578Z,22.82
2022-08-22T22:25:42.151Z,22.78
2022-08-22T22:28:29.249Z,22.49
2022-08-22T22:30:55.925Z,22.34
2022-08-22T22:33:31.361Z,22.35
2022-08-22T22:35:59.845Z,22.18
2022-08-22T22:38:26.715Z,22.14
2022-08-22T22:40:53.420Z,22.15
2022-08-22T22:43:20.076Z,22.24
2022-08-22T22:45:46.820Z,22.28
2022-08-22T22:48:23.830Z,22.34
2022-08-22T22:50:52.444Z,22.36
2022-08-22T22:53:20.052Z,22.34
2022-08-22T22:55:59.790Z,22.36
2022-08-22T22:58:27.926Z,22.33
2022-08-22T23:00:54.798Z,22.31
2022-08-22T23:03:22.570Z,22.29
2022-08-22T23:05:49.345Z,22.12
2022-08-22T23:08:16.032Z,21.96
2022-08-22T23:10:42.883Z,21.93
2022-08-22T23:13:09.511Z,22.05
2022-08-22T23:15:37.235Z,22.08
2022-08-22T23:18:04.275Z,22.02
2022-08-22T23:20:31.052Z,21.76
2022-08-22T23:22:59.380Z,21.71
2022-08-22T23:25:26.476Z,21.72
2022-08-22T23:27:53.579Z,21.77
2022-08-22T23:30:21.629Z,21.95
2022-08-22T23:32:48.385Z,21.93
2022-08-22T23:35:14.994Z,21.90
2022-08-22T23:37:41.646Z,21.65
2022-08-22T23:40:09.518Z,21.78
2022-08-22T23:42:36.476Z,21.83
2022-08-22T23:45:04.030Z,21.87
2022-08-22T23:47:30.770Z,21.80
2022-08-22T23:49:57.441Z,21.78
2022-08-22T23:52:24.730Z,21.74
2022-08-22T23:54:54.517Z,21.59
2022-08-22T23:57:27.684Z,21.56
2022-08-22T23:59:57.760Z,21.67
